createdAt,value
2022-11-08T00:01:27.682Z,20.30
2022-11-08T00:04:16.031Z,20.41
2022-11-08T00:07:23.054Z,20.57
2022-11-08T00:10:23.617Z,20.33
2022-11-08T00:13:33.045Z,20.27
2022-11-08T00:16:15.748Z,20.25
2022-11-08T00:19:04.166Z,20.21
2022-11-08T00:21:46.422Z,20.15
2022-11-08T00:24:35.116Z,20.26
2022-11-08T00:27:29.416Z,20.21
2022-11-08T00:30:18.521Z,20.14
2022-11-08T00:33:00.522Z,20.06
2022-11-08T00:35:49.141Z,20.09
2022-11-08T00:38:31.441Z,20.02
2022-11-08T00:41:20.205Z,19.89
2022-11-08T00:44:02.436Z,19.62
2022-11-08T00:46:51.152Z,19.68
2022-11-08T00:49:33.478Z,19.80
2022-11-08T00:52:22.150Z,19.91
2022-11-08T00:55:11.140Z,19.94
2022-11-08T00:57:59.449Z,19.90
2022-11-08T01:00:49.102Z,19.90
2022-11-08T01:03:37.417Z,19.85
2022-11-08T01:06:21.057Z,19.70
2022-11-08T01:09:10.420Z,19.67
2022-11-08T01:11:54.140Z,19.75
2022-11-08T01:14:43.149Z,19.69
2022-11-08T01:17:25.388Z,19.64
2022-11-08T01:20:14.264Z,19.72
2022-11-08T01:22:56.418Z,19.73
2022-11-08T01:25:50.146Z,19.64
2022-11-08T01:28:32.414Z,19.59
2022-11-08T01:31:29.130Z,19.59
2022-11-08T01:34:18.044Z,19.63
2022-11-08T01:37:07.126Z,19.63
2022-11-08T01:39:56.046Z,19.70
2022-11-08T01:42:45.191Z,19.85
2022-11-08T01:46:04.436Z,19.91
2022-11-08T01:49:12.179Z,19.94
2022-11-08T01:52:16.438Z,19.96
2022-11-08T01:55:28.112Z,19.89
2022-11-08T01:58:28.426Z,19.97
2022-11-08T02:01:18.080Z,20.05
2022-11-08T02:04:00.438Z,20.06
2022-11-08T02:06:51.130Z,20.11
2022-11-08T02:09:40.012Z,20.13
2022-11-08T02:12:31.147Z,20.20
2022-11-08T02:15:14.456Z,20.29
2022-11-08T02:18:03.159Z,20.39
2022-11-08T02:20:45.391Z,20.42
2022-11-08T02:23:58.062Z,20.53
2022-11-08T02:26:42.771Z,20.54
2022-11-08T02:29:43.039Z,20.72
2022-11-08T02:32:32.409Z,20.78
2022-11-08T02:35:20.038Z,20.82
2022-11-08T02:38:08.568Z,20.99
2022-11-08T02:41:01.050Z,21.09
2022-11-08T02:43:53.316Z,21.00
2022-11-08T02:46:35.398Z,21.19
2022-11-08T02:49:24.153Z,21.26
2022-11-08T02:52:06.412Z,21.40
2022-11-08T02:54:55.129Z,21.52
2022-11-08T02:57:37.544Z,21.19
2022-11-08T03:00:26.133Z,21.72
2022-11-08T03:03:08.405Z,21.60
2022-11-08T03:05:57.116Z,22.14
2022-11-08T03:08:39.389Z,22.26
2022-11-08T03:11:28.117Z,23.44
2022-11-08T03:14:10.377Z,23.47
2022-11-08T03:16:59.120Z,23.74
2022-11-08T03:19:41.399Z,24.28
2022-11-08T03:22:30.105Z,24.12
2022-11-08T03:25:12.396Z,24.47
2022-11-08T03:28:01.108Z,24.54
2022-11-08T03:30:44.403Z,25.06
2022-11-08T03:33:33.120Z,25.32
2022-11-08T03:36:15.644Z,25.27
2022-11-08T03:39:04.011Z,25.24
2022-11-08T03:41:46.411Z,24.69
2022-11-08T03:44:35.191Z,25.58
2022-11-08T03:47:17.401Z,25.85
2022-11-08T03:50:06.122Z,24.45
2022-11-08T03:52:52.434Z,25.04
2022-11-08T03:55:41.037Z,25.68
2022-11-08T03:58:23.412Z,26.33
2022-11-08T04:01:14.139Z,26.33
2022-11-08T04:03:56.465Z,26.92
2022-11-08T04:06:45.119Z,27.80
2022-11-08T04:09:34.187Z,28.01
2022-11-08T04:12:34.716Z,28.01
2022-11-08T04:15:29.123Z,27.98
2022-11-08T04:18:36.172Z,28.89
2022-11-08T04:21:32.170Z,28.73
2022-11-08T04:24:21.132Z,28.00
2022-11-08T04:27:03.859Z,27.37
2022-11-08T04:29:53.120Z,28.42
2022-11-08T04:32:41.386Z,29.20
2022-11-08T04:35:24.096Z,29.33
2022-11-08T04:38:13.020Z,27.32
2022-11-08T04:41:03.127Z,26.46
2022-11-08T04:43:52.442Z,26.81
2022-11-08T04:46:36.121Z,26.73
2022-11-08T04:49:31.121Z,27.78
2022-11-08T04:52:13.267Z,26.00
2022-11-08T04:55:02.194Z,27.29
2022-11-08T04:57:44.286Z,27.99
2022-11-08T05:00:33.102Z,28.19
2022-11-08T05:03:15.287Z,28.16
2022-11-08T05:06:04.125Z,28.16
2022-11-08T05:08:53.399Z,28.23
2022-11-08T05:11:38.030Z,27.32
2022-11-08T05:14:26.397Z,27.33
2022-11-08T05:17:08.088Z,27.35
2022-11-08T05:20:08.846Z,27.47
2022-11-08T05:23:17.096Z,27.71
2022-11-08T05:25:59.377Z,27.91
2022-11-08T05:28:51.112Z,27.50
2022-11-08T05:31:47.161Z,26.88
2022-11-08T05:34:29.464Z,27.29
2022-11-08T05:37:18.096Z,27.40
2022-11-08T05:40:06.390Z,27.62
2022-11-08T05:42:49.167Z,28.10
2022-11-08T05:45:31.361Z,28.25
2022-11-08T05:48:20.508Z,28.07
2022-11-08T05:51:09.584Z,28.11
2022-11-08T05:53:54.120Z,28.38
2022-11-08T05:56:43.705Z,28.68
2022-11-08T05:59:25.114Z,28.47
2022-11-08T06:02:14.949Z,28.25
2022-11-08T06:04:58.020Z,28.39
2022-11-08T06:07:47.115Z,28.31
2022-11-08T06:10:30.409Z,28.65
2022-11-08T06:13:19.175Z,29.01
2022-11-08T06:16:01.500Z,28.70
2022-11-08T06:18:51.126Z,28.86
2022-11-08T06:21:33.394Z,28.56
2022-11-08T06:24:25.094Z,28.88
2022-11-08T06:27:14.033Z,29.19
2022-11-08T06:30:03.091Z,29.21
2022-11-08T06:32:51.451Z,29.05
2022-11-08T06:35:34.088Z,29.08
2022-11-08T06:38:23.611Z,29.44
2022-11-08T06:41:09.096Z,29.31
2022-11-08T06:43:57.402Z,29.24
2022-11-08T06:46:40.173Z,29.44
2022-11-08T06:49:28.369Z,29.64
2022-11-08T06:52:11.175Z,29.61
2022-11-08T06:54:53.839Z,29.76
2022-11-08T06:57:44.171Z,29.80
2022-11-08T07:00:33.383Z,29.64
2022-11-08T07:03:15.299Z,29.26
2022-11-08T07:05:57.296Z,29.27
2022-11-08T07:08:40.997Z,29.49
2022-11-08T07:11:23.425Z,29.33
2022-11-08T07:14:12.183Z,29.47
2022-11-08T07:16:54.387Z,29.72
2022-11-08T07:19:43.200Z,29.90
2022-11-08T07:22:25.411Z,29.88
2022-11-08T07:25:14.115Z,29.79
2022-11-08T07:27:56.658Z,29.76
2022-11-08T07:30:51.028Z,29.79
2022-11-08T07:33:33.923Z,29.75
2022-11-08T07:36:23.037Z,29.80
2022-11-08T07:39:06.790Z,29.41
2022-11-08T07:41:56.415Z,29.31
2022-11-08T07:44:44.384Z,29.25
2022-11-08T07:47:26.098Z,29.28
2022-11-08T07:50:17.769Z,29.80
2022-11-08T07:53:01.145Z,29.88
2022-11-08T07:55:51.290Z,29.55
2022-11-08T07:58:34.171Z,29.42
2022-11-08T08:01:16.315Z,29.31
2022-11-08T08:04:05.095Z,29.42
2022-11-08T08:06:53.364Z,29.19
2022-11-08T08:09:36.031Z,29.18
2022-11-08T08:12:25.036Z,29.27
2022-11-08T08:15:14.123Z,29.22
2022-11-08T08:18:03.098Z,29.20
2022-11-08T08:20:46.413Z,29.59
2022-11-08T08:23:35.114Z,29.60
2022-11-08T08:26:17.370Z,29.46
2022-11-08T08:29:06.104Z,29.59
2022-11-08T08:31:54.365Z,29.79
2022-11-08T08:34:37.116Z,29.81
2022-11-08T08:37:25.398Z,29.92
2022-11-08T08:40:07.100Z,29.92
2022-11-08T08:42:55.469Z,30.03
2022-11-08T08:45:38.094Z,29.89
2022-11-08T08:48:26.398Z,29.46
2022-11-08T08:51:09.412Z,29.85
2022-11-08T08:53:51.247Z,29.98
2022-11-08T08:56:40.111Z,29.87
2022-11-08T09:02:31.005Z,30.06
2022-11-08T09:05:14.959Z,30.08
2022-11-08T09:08:04.179Z,29.82
2022-11-08T09:10:52.390Z,29.89
2022-11-08T09:13:36.120Z,29.72
2022-11-08T09:16:25.087Z,29.99
2022-11-08T09:19:07.358Z,29.87
2022-11-08T09:21:56.193Z,30.08
2022-11-08T09:24:38.359Z,29.48
2022-11-08T09:27:27.115Z,29.70
2022-11-08T09:30:09.362Z,29.06
2022-11-08T09:33:03.441Z,29.56
2022-11-08T09:35:47.310Z,29.57
2022-11-08T09:38:36.403Z,29.31
2022-11-08T09:41:55.501Z,29.54
2022-11-08T09:44:54.001Z,29.65
2022-11-08T09:47:47.793Z,29.76
2022-11-08T09:50:41.014Z,29.72
2022-11-08T09:53:35.873Z,29.65
2022-11-08T09:56:29.111Z,29.64
2022-11-08T09:59:14.403Z,29.65
2022-11-08T10:02:03.399Z,29.61
2022-11-08T10:04:45.364Z,29.41
2022-11-08T10:07:43.099Z,29.56
2022-11-08T10:11:29.363Z,29.39
2022-11-08T10:14:21.167Z,29.38
2022-11-08T10:17:44.371Z,29.32
2022-11-08T10:20:57.111Z,29.27
2022-11-08T10:23:55.165Z,29.03
2022-11-08T10:26:49.394Z,29.00
2022-11-08T10:29:46.078Z,28.96
2022-11-08T10:32:38.403Z,28.97
2022-11-08T10:35:21.164Z,28.91
2022-11-08T10:38:13.254Z,29.03
2022-11-08T10:41:16.372Z,28.95
2022-11-08T10:44:18.436Z,28.77
2022-11-08T10:47:13.985Z,28.67
2022-11-08T10:50:04.622Z,28.57
2022-11-08T10:53:08.096Z,28.33
2022-11-08T10:55:52.985Z,28.06
2022-11-08T10:58:47.436Z,28.01
2022-11-08T11:01:35.493Z,27.97
2022-11-08T11:04:36.106Z,27.86
2022-11-08T11:07:42.992Z,27.85
2022-11-08T11:10:52.021Z,27.90
2022-11-08T11:13:40.368Z,27.82
2022-11-08T11:16:24.151Z,27.89
2022-11-08T11:19:14.377Z,27.98
2022-11-08T11:22:04.077Z,27.92
2022-11-08T11:24:53.075Z,27.85
2022-11-08T11:27:50.077Z,27.82
2022-11-08T11:30:55.088Z,27.80
2022-11-08T11:33:59.076Z,27.80
2022-11-08T11:36:47.380Z,27.70
2022-11-08T11:39:38.993Z,27.50
2022-11-08T11:42:45.329Z,27.41
2022-11-08T11:45:43.083Z,27.28
2022-11-08T11:48:36.000Z,27.15
2022-11-08T11:51:25.164Z,27.08
2022-11-08T11:54:11.372Z,27.09
2022-11-08T11:57:23.104Z,27.14
2022-11-08T12:00:09.351Z,26.99
2022-11-08T12:03:39.094Z,26.99
2022-11-08T12:06:31.038Z,26.85
2022-11-08T12:09:47.996Z,26.89
2022-11-08T12:13:11.375Z,26.93
2022-11-08T12:16:24.999Z,26.94
2022-11-08T12:19:24.374Z,26.85
2022-11-08T12:22:56.223Z,26.63
2022-11-08T12:25:55.532Z,26.65
2022-11-08T12:29:01.112Z,26.70
2022-11-08T12:31:59.747Z,26.75
2022-11-08T12:34:59.975Z,26.68
2022-11-08T12:38:07.078Z,26.61
2022-11-08T12:40:49.587Z,26.77
2022-11-08T12:44:01.094Z,26.84
2022-11-08T12:47:16.987Z,26.67
2022-11-08T12:50:24.004Z,26.78
2022-11-08T12:53:12.399Z,26.75
2022-11-08T12:56:05.114Z,26.74
2022-11-08T12:58:57.371Z,26.69
2022-11-08T13:01:47.993Z,26.57
2022-11-08T13:04:53.017Z,26.58
2022-11-08T13:08:23.351Z,26.54
2022-11-08T13:11:14.009Z,26.57
2022-11-08T13:13:58.092Z,26.43
2022-11-08T13:16:52.989Z,26.35
2022-11-08T13:20:03.422Z,26.38
2022-11-08T13:22:55.020Z,26.21
2022-11-08T13:25:44.446Z,26.20
2022-11-08T13:28:48.078Z,26.32
2022-11-08T13:31:48.012Z,26.27
2022-11-08T13:35:00.345Z,25.96
2022-11-08T13:38:10.081Z,26.02
2022-11-08T13:41:19.483Z,25.96
2022-11-08T13:44:07.984Z,25.81
2022-11-08T13:46:54.434Z,25.72
2022-11-08T13:49:43.166Z,25.73
2022-11-08T13:52:55.455Z,25.64
2022-11-08T13:55:50.115Z,25.52
2022-11-08T13:58:43.593Z,25.50
2022-11-08T14:01:37.497Z,25.47
2022-11-08T14:04:41.069Z,25.35
2022-11-08T14:07:51.124Z,25.40
2022-11-08T14:11:08.985Z,25.37
2022-11-08T14:14:00.178Z,25.30
2022-11-08T14:17:16.030Z,25.38
2022-11-08T14:20:18.352Z,25.22
2022-11-08T14:23:07.072Z,25.18
2022-11-08T14:26:08.408Z,25.04
2022-11-08T14:28:54.046Z,24.95
2022-11-08T14:31:49.987Z,24.81
2022-11-08T14:34:44.665Z,24.67
2022-11-08T14:37:31.972Z,24.62
2022-11-08T14:40:29.363Z,24.56
2022-11-08T14:43:11.989Z,24.44
2022-11-08T14:46:01.384Z,24.38
2022-11-08T14:48:43.018Z,24.35
2022-11-08T14:51:34.338Z,24.30
2022-11-08T14:54:34.052Z,24.16
2022-11-08T14:57:48.068Z,24.22
2022-11-08T15:00:30.329Z,24.19
2022-11-08T15:03:21.217Z,24.10
2022-11-08T15:06:14.463Z,24.12
2022-11-08T15:09:00.048Z,24.07
2022-11-08T15:11:44.180Z,24.04
2022-11-08T15:14:35.991Z,23.96
2022-11-08T15:17:37.863Z,23.98
2022-11-08T15:20:27.112Z,23.91
2022-11-08T15:23:54.315Z,23.86
2022-11-08T15:26:44.072Z,23.67
2022-11-08T15:29:27.594Z,23.69
2022-11-08T15:32:16.074Z,23.58
2022-11-08T15:35:05.516Z,23.53
2022-11-08T15:37:52.079Z,23.50
2022-11-08T15:40:43.988Z,23.43
2022-11-08T15:43:38.536Z,23.41
2022-11-08T15:46:46.090Z,23.56
2022-11-08T15:49:37.976Z,23.33
2022-11-08T15:52:26.993Z,23.25
2022-11-08T15:55:09.345Z,23.21
2022-11-08T15:57:59.017Z,23.30
2022-11-08T16:00:49.054Z,23.24
2022-11-08T16:03:32.210Z,23.24
2022-11-08T16:06:21.034Z,23.26
2022-11-08T16:09:03.422Z,23.26
2022-11-08T16:11:53.017Z,23.25
2022-11-08T16:14:35.342Z,23.05
2022-11-08T16:17:30.001Z,23.09
2022-11-08T16:20:23.661Z,23.04
2022-11-08T16:23:17.008Z,23.09
2022-11-08T16:26:01.950Z,23.05
2022-11-08T16:28:51.999Z,22.98
2022-11-08T16:31:40.986Z,22.89
2022-11-08T16:34:30.462Z,22.90
2022-11-08T16:37:12.027Z,22.93
2022-11-08T16:40:02.547Z,22.88
2022-11-08T16:42:44.062Z,22.83
2022-11-08T16:45:58.478Z,22.82
2022-11-08T16:48:35.049Z,22.76
2022-11-08T16:51:28.992Z,22.75
2022-11-08T16:54:19.123Z,22.67
2022-11-08T16:57:28.491Z,22.65
2022-11-08T17:00:11.179Z,22.67
2022-11-08T17:03:01.334Z,22.67
2022-11-08T17:05:43.050Z,22.68
2022-11-08T17:08:28.866Z,22.72
2022-11-08T17:11:18.098Z,22.65
2022-11-08T17:14:00.364Z,22.59
2022-11-08T17:16:49.053Z,22.56
2022-11-08T17:19:38.046Z,22.61
2022-11-08T17:22:20.502Z,22.56
2022-11-08T17:25:09.043Z,22.51
2022-11-08T17:27:58.979Z,22.46
2022-11-08T17:30:45.196Z,22.41
2022-11-08T17:33:34.070Z,22.47
2022-11-08T17:36:22.981Z,22.37
2022-11-08T17:39:07.074Z,22.39
2022-11-08T17:41:56.074Z,22.50
2022-11-08T17:44:45.055Z,22.42
2022-11-08T17:47:35.449Z,22.46
2022-11-08T17:50:18.058Z,22.37
2022-11-08T17:53:07.476Z,22.36
2022-11-08T17:55:49.187Z,22.46
2022-11-08T17:58:39.094Z,22.48
2022-11-08T18:01:23.244Z,22.32
2022-11-08T18:04:05.543Z,22.39
2022-11-08T18:06:54.119Z,22.39
2022-11-08T18:09:43.093Z,22.45
2022-11-08T18:12:25.362Z,22.33
2022-11-08T18:15:13.946Z,22.37
2022-11-08T18:18:02.966Z,22.34
2022-11-08T18:20:52.478Z,22.31
2022-11-08T18:23:35.420Z,22.31
2022-11-08T18:26:25.408Z,22.33
2022-11-08T18:29:09.082Z,22.22
2022-11-08T18:31:57.338Z,22.25
2022-11-08T18:34:51.964Z,22.25
2022-11-08T18:37:40.407Z,22.26
2022-11-08T18:40:23.098Z,22.17
2022-11-08T18:43:12.087Z,22.26
2022-11-08T18:45:54.470Z,22.16
2022-11-08T18:48:43.075Z,22.24
2022-11-08T18:51:27.376Z,22.27
2022-11-08T18:54:17.058Z,22.13
2022-11-08T18:56:59.484Z,22.06
2022-11-08T18:59:48.088Z,22.04
2022-11-08T19:02:30.745Z,21.95
2022-11-08T19:05:20.178Z,22.02
2022-11-08T19:08:02.519Z,22.05
2022-11-08T19:11:06.249Z,22.14
2022-11-08T19:13:50.529Z,22.07
2022-11-08T19:16:39.036Z,22.03
2022-11-08T19:19:21.544Z,22.02
2022-11-08T19:22:10.039Z,22.14
2022-11-08T19:24:52.344Z,22.09
2022-11-08T19:27:42.095Z,22.15
2022-11-08T19:30:24.754Z,22.06
2022-11-08T19:33:14.046Z,22.03
2022-11-08T19:36:13.915Z,22.05
2022-11-08T19:39:06.046Z,22.04
2022-11-08T19:41:55.060Z,22.01
2022-11-08T19:44:45.031Z,21.99
2022-11-08T19:47:34.040Z,21.99
2022-11-08T19:50:23.027Z,21.98
2022-11-08T19:53:12.022Z,21.85
2022-11-08T19:57:02.035Z,21.90
2022-11-08T19:59:32.584Z,21.89
2022-11-08T20:02:21.008Z,22.00
2022-11-08T20:05:03.482Z,21.94
2022-11-08T20:07:55.035Z,21.93
2022-11-08T20:10:37.303Z,21.92
2022-11-08T20:13:27.068Z,21.89
2022-11-08T20:16:19.464Z,21.82
2022-11-08T20:19:15.044Z,21.87
2022-11-08T20:22:04.041Z,21.78
2022-11-08T20:24:46.797Z,21.90
2022-11-08T20:27:36.050Z,21.83
2022-11-08T20:30:18.316Z,21.73
2022-11-08T20:33:07.023Z,21.64
2022-11-08T20:35:55.297Z,21.66
2022-11-08T20:38:53.038Z,21.64
2022-11-08T20:41:36.524Z,21.56
2022-11-08T20:44:25.053Z,21.57
2022-11-08T20:47:08.714Z,21.58
2022-11-08T20:49:59.015Z,21.51
2022-11-08T20:52:48.028Z,21.50
2022-11-08T20:55:30.501Z,21.53
2022-11-08T20:58:19.232Z,21.43
2022-11-08T21:01:02.907Z,21.44
2022-11-08T21:03:53.073Z,21.41
2022-11-08T21:06:36.312Z,21.44
2022-11-08T21:09:37.208Z,21.44
2022-11-08T21:12:27.086Z,21.41
2022-11-08T21:15:15.922Z,21.35
2022-11-08T21:18:06.038Z,21.48
2022-11-08T21:20:49.291Z,21.37
2022-11-08T21:23:39.048Z,21.35
2022-11-08T21:26:23.361Z,21.34
2022-11-08T21:29:13.047Z,21.36
2022-11-08T21:32:01.944Z,21.27
2022-11-08T21:34:56.881Z,21.29
2022-11-08T21:37:39.013Z,21.27
2022-11-08T21:40:27.913Z,21.24
2022-11-08T21:43:17.015Z,21.29
2022-11-08T21:46:05.937Z,21.18
2022-11-08T21:48:48.379Z,21.12
2022-11-08T21:51:38.016Z,21.17
2022-11-08T21:54:20.270Z,21.25
2022-11-08T21:57:09.060Z,21.37
2022-11-08T21:59:51.329Z,21.31
2022-11-08T22:02:39.933Z,21.38
2022-11-08T22:05:29.003Z,21.38
2022-11-08T22:08:18.294Z,21.40
2022-11-08T22:11:07.052Z,21.40
2022-11-08T22:13:55.933Z,21.29
2022-11-08T22:16:45.032Z,21.37
2022-11-08T22:19:33.930Z,21.41
2022-11-08T22:22:23.917Z,21.35
2022-11-08T22:25:12.914Z,21.24
2022-11-08T22:28:02.069Z,21.30
2022-11-08T22:30:58.318Z,21.28
2022-11-08T22:33:40.024Z,21.33
2022-11-08T22:36:28.856Z,21.36
2022-11-08T22:39:11.998Z,21.48
2022-11-08T22:41:57.006Z,21.48
2022-11-08T22:44:45.960Z,21.47
2022-11-08T22:47:34.336Z,21.47
2022-11-08T22:50:17.016Z,21.55
2022-11-08T22:52:59.299Z,21.50
2022-11-08T22:55:48.017Z,21.46
2022-11-08T22:58:31.155Z,21.54
2022-11-08T23:01:21.016Z,21.45
2022-11-08T23:04:03.444Z,21.45
2022-11-08T23:06:53.109Z,21.47
2022-11-08T23:09:41.315Z,21.43
2022-11-08T23:12:41.909Z,21.39
2022-11-08T23:15:42.344Z,21.41
2022-11-08T23:18:30.931Z,21.41
2022-11-08T23:21:31.541Z,21.44
2022-11-08T23:24:29.018Z,21.48
2022-11-08T23:27:30.837Z,21.52
2022-11-08T23:30:39.050Z,21.51
2022-11-08T23:33:27.938Z,21.49
2022-11-08T23:36:20.013Z,21.41
2022-11-08T23:39:02.196Z,21.37
2022-11-08T23:42:09.022Z,21.28
2022-11-08T23:44:51.208Z,21.35
2022-11-08T23:47:39.909Z,21.27
2022-11-08T23:50:22.527Z,21.26
2022-11-08T23:53:14.071Z,21.15
2022-11-08T23:55:56.324Z,21.22
2022-11-08T23:58:45.066Z,21.07
